sensor_id;sensor_type;location;lat;lon;timestamp;temperature;humidity
2657;DHT22;1338;48.176;11.792;2023-07-31T00:02:14;15.50;99.90
2657;DHT22;1338;48.176;11.792;2023-07-31T00:04:42;15.40;99.90
2657;DHT22;1338;48.176;11.792;2023-07-31T00:07:11;15.30;99.90
2657;DHT22;1338;48.176;11.792;2023-07-31T00:09:39;15.20;99.90
2657;DHT22;1338;48.176;11.792;2023-07-31T00:12:09;15.00;99.90
2657;DHT22;1338;48.176;11.792;2023-07-31T00:14:37;14.90;99.90
2657;DHT22;1338;48.176;11.792;2023-07-31T00:17:05;14.80;1.00
2657;DHT22;1338;48.176;11.792;2023-07-31T00:19:33;14.70;1.00
2657;DHT22;1338;48.176;11.792;2023-07-31T00:22:01;14.70;1.00
2657;DHT22;1338;48.176;11.792;2023-07-31T00:24:30;14.60;1.00
2657;DHT22;1338;48.176;11.792;2023-07-31T00:26:58;14.60;1.00
2657;DHT22;1338;48.176;11.792;2023-07-31T00:29:28;14.50;1.00
2657;DHT22;1338;48.176;11.792;2023-07-31T00:31:56;14.60;1.00
2657;DHT22;1338;48.176;11.792;2023-07-31T00:34:25;14.60;1.00
2657;DHT22;1338;48.176;11.792;2023-07-31T00:36:53;14.60;1.00
2657;DHT22;1338;48.176;11.792;2023-07-31T00:39:21;14.70;1.00
2657;DHT22;1338;48.176;11.792;2023-07-31T00:41:49;14.70;1.00
2657;DHT22;1338;48.176;11.792;2023-07-31T00:44:17;14.70;1.00
2657;DHT22;1338;48.176;11.792;2023-07-31T00:46:47;14.70;1.00
2657;DHT22;1338;48.176;11.792;2023-07-31T00:49:15;14.70;1.00
2657;DHT22;1338;48.176;11.792;2023-07-31T00:51:44;14.70;1.00
2657;DHT22;1338;48.176;11.792;2023-07-31T00:54:12;14.70;1.00
2657;DHT22;1338;48.176;11.792;2023-07-31T00:56:41;14.70;1.00
2657;DHT22;1338;48.176;11.792;2023-07-31T00:59:09;14.70;1.00
2657;DHT22;1338;48.176;11.792;2023-07-31T01:01:38;14.60;1.00
2657;DHT22;1338;48.176;11.792;2023-07-31T01:04:07;14.60;1.00
2657;DHT22;1338;48.176;11.792;2023-07-31T01:06:40;14.50;1.00
2657;DHT22;1338;48.176;11.792;2023-07-31T01:09:22;14.50;1.00
2657;DHT22;1338;48.176;11.792;2023-07-31T01:11:56;14.60;1.00
2657;DHT22;1338;48.176;11.792;2023-07-31T01:14:27;14.60;1.00
2657;DHT22;1338;48.176;11.792;2023-07-31T01:16:55;14.60;1.00
2657;DHT22;1338;48.176;11.792;2023-07-31T01:19:26;14.50;1.00
2657;DHT22;1338;48.176;11.792;2023-07-31T01:22:16;14.50;1.00
2657;DHT22;1338;48.176;11.792;2023-07-31T01:24:56;14.50;1.00
2657;DHT22;1338;48.176;11.792;2023-07-31T01:27:30;14.50;1.00
2657;DHT22;1338;48.176;11.792;2023-07-31T01:30:07;14.50;1.00
2657;DHT22;1338;48.176;11.792;2023-07-31T01:32:39;14.50;1.00
2657;DHT22;1338;48.176;11.792;2023-07-31T01:35:08;14.50;1.00
2657;DHT22;1338;48.176;11.792;2023-07-31T01:37:37;14.50;1.00
2657;DHT22;1338;48.176;11.792;2023-07-31T01:40:06;14.50;1.00
2657;DHT22;1338;48.176;11.792;2023-07-31T01:42:36;14.60;1.00
2657;DHT22;1338;48.176;11.792;2023-07-31T01:45:05;14.60;1.00
2657;DHT22;1338;48.176;11.792;2023-07-31T01:47:34;14.60;1.00
2657;DHT22;1338;48.176;11.792;2023-07-31T01:50:02;14.60;1.00
2657;DHT22;1338;48.176;11.792;2023-07-31T01:52:30;14.60;1.00
2657;DHT22;1338;48.176;11.792;2023-07-31T01:54:58;14.50;1.00
2657;DHT22;1338;48.176;11.792;2023-07-31T01:57:27;14.50;1.00
2657;DHT22;1338;48.176;11.792;2023-07-31T01:59:56;14.50;1.00
2657;DHT22;1338;48.176;11.792;2023-07-31T02:02:24;14.40;1.00
2657;DHT22;1338;48.176;11.792;2023-07-31T02:04:52;14.40;1.00
2657;DHT22;1338;48.176;11.792;2023-07-31T02:07:21;14.30;1.00
2657;DHT22;1338;48.176;11.792;2023-07-31T02:09:49;14.30;1.00
2657;DHT22;1338;48.176;11.792;2023-07-31T02:12:17;14.20;1.00
2657;DHT22;1338;48.176;11.792;2023-07-31T02:14:45;14.30;1.00
2657;DHT22;1338;48.176;11.792;2023-07-31T02:17:14;14.30;1.00
2657;DHT22;1338;48.176;11.792;2023-07-31T02:19:43;14.30;1.00
2657;DHT22;1338;48.176;11.792;2023-07-31T02:22:11;14.30;1.00
2657;DHT22;1338;48.176;11.792;2023-07-31T02:24:39;14.30;1.00
2657;DHT22;1338;48.176;11.792;2023-07-31T02:27:07;14.30;1.00
2657;DHT22;1338;48.176;11.792;2023-07-31T02:29:35;14.40;1.00
2657;DHT22;1338;48.176;11.792;2023-07-31T02:32:04;14.30;1.00
2657;DHT22;1338;48.176;11.792;2023-07-31T02:34:33;14.30;1.00
2657;DHT22;1338;48.176;11.792;2023-07-31T02:37:02;14.40;1.00
2657;DHT22;1338;48.176;11.792;2023-07-31T02:39:30;14.40;1.00
2657;DHT22;1338;48.176;11.792;2023-07-31T02:41:59;14.30;1.00
2657;DHT22;1338;48.176;11.792;2023-07-31T02:44:27;14.30;1.00
2657;DHT22;1338;48.176;11.792;2023-07-31T02:46:55;14.40;1.00
2657;DHT22;1338;48.176;11.792;2023-07-31T02:49:23;14.40;1.00
2657;DHT22;1338;48.176;11.792;2023-07-31T02:51:53;14.50;1.00
2657;DHT22;1338;48.176;11.792;2023-07-31T02:54:21;14.60;1.00
2657;DHT22;1338;48.176;11.792;2023-07-31T02:56:49;14.50;1.00
2657;DHT22;1338;48.176;11.792;2023-07-31T02:59:17;14.50;1.00
2657;DHT22;1338;48.176;11.792;2023-07-31T03:01:45;14.40;1.00
2657;DHT22;1338;48.176;11.792;2023-07-31T03:04:14;14.40;1.00
2657;DHT22;1338;48.176;11.792;2023-07-31T03:06:44;14.40;1.00
2657;DHT22;1338;48.176;11.792;2023-07-31T03:09:14;14.30;1.00
2657;DHT22;1338;48.176;11.792;2023-07-31T03:11:43;14.40;1.00
2657;DHT22;1338;48.176;11.792;2023-07-31T03:14:11;14.30;1.00
2657;DHT22;1338;48.176;11.792;2023-07-31T03:16:41;14.30;1.00
2657;DHT22;1338;48.176;11.792;2023-07-31T03:19:09;14.40;1.00
2657;DHT22;1338;48.176;11.792;2023-07-31T03:21:37;14.40;1.00
2657;DHT22;1338;48.176;11.792;2023-07-31T03:24:05;14.30;1.00
2657;DHT22;1338;48.176;11.792;2023-07-31T03:26:35;14.30;1.00
2657;DHT22;1338;48.176;11.792;2023-07-31T03:29:04;14.40;1.00
2657;DHT22;1338;48.176;11.792;2023-07-31T03:31:32;14.20;1.00
2657;DHT22;1338;48.176;11.792;2023-07-31T03:34:00;14.20;1.00
2657;DHT22;1338;48.176;11.792;2023-07-31T03:36:29;14.10;1.00
2657;DHT22;1338;48.176;11.792;2023-07-31T03:38:57;14.00;1.00
2657;DHT22;1338;48.176;11.792;2023-07-31T03:41:26;13.90;1.00
2657;DHT22;1338;48.176;11.792;2023-07-31T03:43:56;13.90;1.00
2657;DHT22;1338;48.176;11.792;2023-07-31T03:46:25;14.10;1.00
2657;DHT22;1338;48.176;11.792;2023-07-31T03:48:53;14.00;1.00
2657;DHT22;1338;48.176;11.792;2023-07-31T03:51:22;14.00;1.00
2657;DHT22;1338;48.176;11.792;2023-07-31T03:53:50;13.90;1.00
2657;DHT22;1338;48.176;11.792;2023-07-31T03:56:18;13.90;1.00
2657;DHT22;1338;48.176;11.792;2023-07-31T03:58:46;14.00;1.00
2657;DHT22;1338;48.176;11.792;2023-07-31T04:01:16;14.10;1.00
2657;DHT22;1338;48.176;11.792;2023-07-31T04:03:46;14.30;1.00
2657;DHT22;1338;48.176;11.792;2023-07-31T04:06:14;14.20;1.00
2657;DHT22;1338;48.176;11.792;2023-07-31T04:08:44;14.40;1.00
2657;DHT22;1338;48.176;11.792;2023-07-31T04:11:13;14.30;1.00
2657;DHT22;1338;48.176;11.792;2023-07-31T04:13:41;14.40;1.00
2657;DHT22;1338;48.176;11.792;2023-07-31T04:16:09;14.60;1.00
2657;DHT22;1338;48.176;11.792;2023-07-31T04:18:39;14.50;1.00
2657;DHT22;1338;48.176;11.792;2023-07-31T04:21:07;14.40;1.00
2657;DHT22;1338;48.176;11.792;2023-07-31T04:23:36;14.30;1.00
2657;DHT22;1338;48.176;11.792;2023-07-31T04:26:05;14.30;1.00
2657;DHT22;1338;48.176;11.792;2023-07-31T04:28:33;14.20;1.00
2657;DHT22;1338;48.176;11.792;2023-07-31T04:31:01;14.30;1.00
2657;DHT22;1338;48.176;11.792;2023-07-31T04:33:29;14.20;1.00
2657;DHT22;1338;48.176;11.792;2023-07-31T04:35:59;14.30;1.00
2657;DHT22;1338;48.176;11.792;2023-07-31T04:38:27;14.40;1.00
2657;DHT22;1338;48.176;11.792;2023-07-31T04:40:55;14.40;1.00
2657;DHT22;1338;48.176;11.792;2023-07-31T04:43:24;14.40;1.00
2657;DHT22;1338;48.176;11.792;2023-07-31T04:45:52;14.50;1.00
2657;DHT22;1338;48.176;11.792;2023-07-31T04:48:20;14.60;1.00
2657;DHT22;1338;48.176;11.792;2023-07-31T04:50:49;14.70;1.00
2657;DHT22;1338;48.176;11.792;2023-07-31T04:53:19;14.80;1.00
2657;DHT22;1338;48.176;11.792;2023-07-31T04:55:47;14.80;1.00
2657;DHT22;1338;48.176;11.792;2023-07-31T04:58:15;14.90;1.00
2657;DHT22;1338;48.176;11.792;2023-07-31T05:00:43;14.90;1.00
2657;DHT22;1338;48.176;11.792;2023-07-31T05:03:11;14.90;1.00
2657;DHT22;1338;48.176;11.792;2023-07-31T05:05:39;14.90;1.00
2657;DHT22;1338;48.176;11.792;2023-07-31T05:08:08;15.10;1.00
2657;DHT22;1338;48.176;11.792;2023-07-31T05:10:37;15.20;1.00
2657;DHT22;1338;48.176;11.792;2023-07-31T05:13:05;15.30;1.00
2657;DHT22;1338;48.176;11.792;2023-07-31T05:15:34;15.40;1.00
2657;DHT22;1338;48.176;11.792;2023-07-31T05:18:02;15.50;1.00
2657;DHT22;1338;48.176;11.792;2023-07-31T05:20:30;15.70;1.00
2657;DHT22;1338;48.176;11.792;2023-07-31T05:22:58;15.80;1.00
2657;DHT22;1338;48.176;11.792;2023-07-31T05:25:26;15.80;1.00
2657;DHT22;1338;48.176;11.792;2023-07-31T05:27:56;16.00;1.00
2657;DHT22;1338;48.176;11.792;2023-07-31T05:30:24;15.90;1.00
2657;DHT22;1338;48.176;11.792;2023-07-31T05:32:52;16.00;1.00
2657;DHT22;1338;48.176;11.792;2023-07-31T05:35:21;16.00;1.00
2657;DHT22;1338;48.176;11.792;2023-07-31T05:37:49;16.00;1.00
2657;DHT22;1338;48.176;11.792;2023-07-31T05:40:17;16.00;1.00
2657;DHT22;1338;48.176;11.792;2023-07-31T05:42:45;16.00;1.00
2657;DHT22;1338;48.176;11.792;2023-07-31T05:45:15;16.10;1.00
2657;DHT22;1338;48.176;11.792;2023-07-31T05:47:43;16.20;1.00
2657;DHT22;1338;48.176;11.792;2023-07-31T05:50:11;16.30;1.00
2657;DHT22;1338;48.176;11.792;2023-07-31T05:52:41;16.60;1.00
2657;DHT22;1338;48.176;11.792;2023-07-31T05:55:09;16.70;1.00
2657;DHT22;1338;48.176;11.792;2023-07-31T05:57:37;16.90;1.00
2657;DHT22;1338;48.176;11.792;2023-07-31T06:00:06;17.00;1.00
2657;DHT22;1338;48.176;11.792;2023-07-31T06:02:37;17.10;1.00
2657;DHT22;1338;48.176;11.792;2023-07-31T06:05:07;17.10;1.00
2657;DHT22;1338;48.176;11.792;2023-07-31T06:07:35;17.10;1.00
2657;DHT22;1338;48.176;11.792;2023-07-31T06:10:04;17.10;99.90
2657;DHT22;1338;48.176;11.792;2023-07-31T06:12:33;17.00;99.90
2657;DHT22;1338;48.176;11.792;2023-07-31T06:15:03;17.10;99.90
2657;DHT22;1338;48.176;11.792;2023-07-31T06:17:31;17.10;99.90
2657;DHT22;1338;48.176;11.792;2023-07-31T06:20:01;17.10;99.90
2657;DHT22;1338;48.176;11.792;2023-07-31T06:22:32;17.10;99.90
2657;DHT22;1338;48.176;11.792;2023-07-31T06:25:00;17.30;99.90
2657;DHT22;1338;48.176;11.792;2023-07-31T06:27:28;17.40;99.90
2657;DHT22;1338;48.176;11.792;2023-07-31T06:29:56;17.50;99.90
2657;DHT22;1338;48.176;11.792;2023-07-31T06:32:24;17.70;99.90
2657;DHT22;1338;48.176;11.792;2023-07-31T06:34:53;17.80;99.90
2657;DHT22;1338;48.176;11.792;2023-07-31T06:37:22;17.90;99.90
2657;DHT22;1338;48.176;11.792;2023-07-31T06:39:50;18.00;99.90
2657;DHT22;1338;48.176;11.792;2023-07-31T06:42:19;18.10;99.90
2657;DHT22;1338;48.176;11.792;2023-07-31T06:44:47;18.30;99.90
2657;DHT22;1338;48.176;11.792;2023-07-31T06:47:15;18.30;99.90
2657;DHT22;1338;48.176;11.792;2023-07-31T06:49:44;18.00;99.90
2657;DHT22;1338;48.176;11.792;2023-07-31T06:52:12;18.00;99.90
2657;DHT22;1338;48.176;11.792;2023-07-31T06:54:41;18.00;99.90
2657;DHT22;1338;48.176;11.792;2023-07-31T06:57:09;18.00;99.90
2657;DHT22;1338;48.176;11.792;2023-07-31T06:59:37;18.00;99.90
2657;DHT22;1338;48.176;11.792;2023-07-31T07:02:06;18.10;99.90
2657;DHT22;1338;48.176;11.792;2023-07-31T07:04:34;18.20;99.90
2657;DHT22;1338;48.176;11.792;2023-07-31T07:07:02;18.30;99.90
2657;DHT22;1338;48.176;11.792;2023-07-31T07:09:31;18.50;99.90
2657;DHT22;1338;48.176;11.792;2023-07-31T07:12:00;18.30;99.90
2657;DHT22;1338;48.176;11.792;2023-07-31T07:14:28;18.50;99.90
2657;DHT22;1338;48.176;11.792;2023-07-31T07:16:56;18.60;99.90
2657;DHT22;1338;48.176;11.792;2023-07-31T07:19:24;18.40;99.90
2657;DHT22;1338;48.176;11.792;2023-07-31T07:21:52;18.40;99.90
2657;DHT22;1338;48.176;11.792;2023-07-31T07:24:20;18.50;99.90
2657;DHT22;1338;48.176;11.792;2023-07-31T07:26:49;18.60;99.90
2657;DHT22;1338;48.176;11.792;2023-07-31T07:29:18;18.60;99.90
2657;DHT22;1338;48.176;11.792;2023-07-31T07:31:46;18.60;99.90
2657;DHT22;1338;48.176;11.792;2023-07-31T07:34:14;18.40;99.90
2657;DHT22;1338;48.176;11.792;2023-07-31T07:36:42;18.50;99.90
2657;DHT22;1338;48.176;11.792;2023-07-31T07:39:11;18.40;99.90
2657;DHT22;1338;48.176;11.792;2023-07-31T07:41:40;18.50;99.90
2657;DHT22;1338;48.176;11.792;2023-07-31T07:44:08;18.60;99.90
2657;DHT22;1338;48.176;11.792;2023-07-31T07:46:38;18.60;99.90
2657;DHT22;1338;48.176;11.792;2023-07-31T07:49:06;18.60;99.90
2657;DHT22;1338;48.176;11.792;2023-07-31T07:51:35;18.50;99.90
2657;DHT22;1338;48.176;11.792;2023-07-31T07:54:04;18.60;99.90
2657;DHT22;1338;48.176;11.792;2023-07-31T07:56:33;18.60;99.90
2657;DHT22;1338;48.176;11.792;2023-07-31T07:59:03;18.50;99.90
2657;DHT22;1338;48.176;11.792;2023-07-31T08:01:31;18.60;99.90
2657;DHT22;1338;48.176;11.792;2023-07-31T08:04:01;19.20;99.90
2657;DHT22;1338;48.176;11.792;2023-07-31T08:06:29;19.50;98.10
2657;DHT22;1338;48.176;11.792;2023-07-31T08:08:57;19.80;94.00
2657;DHT22;1338;48.176;11.792;2023-07-31T08:11:26;19.50;69.90
2657;DHT22;1338;48.176;11.792;2023-07-31T08:13:54;19.10;73.50
2657;DHT22;1338;48.176;11.792;2023-07-31T08:16:22;19.20;75.90
2657;DHT22;1338;48.176;11.792;2023-07-31T08:18:50;19.60;66.10
2657;DHT22;1338;48.176;11.792;2023-07-31T08:21:21;19.60;52.00
2657;DHT22;1338;48.176;11.792;2023-07-31T08:23:49;19.70;53.40
2657;DHT22;1338;48.176;11.792;2023-07-31T08:26:17;19.90;34.20
2657;DHT22;1338;48.176;11.792;2023-07-31T08:28:46;19.60;13.20
2657;DHT22;1338;48.176;11.792;2023-07-31T08:31:14;19.70;7.70
2657;DHT22;1338;48.176;11.792;2023-07-31T08:33:43;19.90;3.50
2657;DHT22;1338;48.176;11.792;2023-07-31T08:36:11;20.00;1.00
2657;DHT22;1338;48.176;11.792;2023-07-31T08:38:40;20.30;1.00
2657;DHT22;1338;48.176;11.792;2023-07-31T08:41:08;20.00;1.00
2657;DHT22;1338;48.176;11.792;2023-07-31T08:43:38;19.70;1.00
2657;DHT22;1338;48.176;11.792;2023-07-31T08:46:06;19.70;1.00
2657;DHT22;1338;48.176;11.792;2023-07-31T08:48:35;19.80;1.00
2657;DHT22;1338;48.176;11.792;2023-07-31T08:51:04;19.90;1.00
2657;DHT22;1338;48.176;11.792;2023-07-31T08:53:33;19.70;1.00
2657;DHT22;1338;48.176;11.792;2023-07-31T08:56:03;19.70;1.00
2657;DHT22;1338;48.176;11.792;2023-07-31T08:58:33;19.70;1.00
2657;DHT22;1338;48.176;11.792;2023-07-31T09:01:04;19.60;1.00
2657;DHT22;1338;48.176;11.792;2023-07-31T09:03:34;19.50;1.00
2657;DHT22;1338;48.176;11.792;2023-07-31T09:06:04;19.50;1.00
2657;DHT22;1338;48.176;11.792;2023-07-31T09:08:33;19.30;1.00
2657;DHT22;1338;48.176;11.792;2023-07-31T09:11:03;19.20;1.00
2657;DHT22;1338;48.176;11.792;2023-07-31T09:13:32;19.10;1.00
2657;DHT22;1338;48.176;11.792;2023-07-31T09:16:00;19.20;1.00
2657;DHT22;1338;48.176;11.792;2023-07-31T09:18:29;19.10;1.00
2657;DHT22;1338;48.176;11.792;2023-07-31T09:21:04;19.20;1.00
2657;DHT22;1338;48.176;11.792;2023-07-31T09:23:43;19.30;1.00
2657;DHT22;1338;48.176;11.792;2023-07-31T09:26:28;19.50;1.00
2657;DHT22;1338;48.176;11.792;2023-07-31T09:28:57;19.90;1.00
2657;DHT22;1338;48.176;11.792;2023-07-31T09:31:32;19.90;1.00
2657;DHT22;1338;48.176;11.792;2023-07-31T09:34:01;20.00;1.00
2657;DHT22;1338;48.176;11.792;2023-07-31T09:36:29;20.40;1.00
2657;DHT22;1338;48.176;11.792;2023-07-31T09:39:02;20.50;1.00
2657;DHT22;1338;48.176;11.792;2023-07-31T09:41:36;20.20;1.00
2657;DHT22;1338;48.176;11.792;2023-07-31T09:44:05;20.80;1.00
2657;DHT22;1338;48.176;11.792;2023-07-31T09:46:35;20.20;1.00
2657;DHT22;1338;48.176;11.792;2023-07-31T09:49:06;20.50;1.00
2657;DHT22;1338;48.176;11.792;2023-07-31T09:51:36;20.30;1.00
2657;DHT22;1338;48.176;11.792;2023-07-31T09:54:10;20.40;1.00
2657;DHT22;1338;48.176;11.792;2023-07-31T09:56:45;20.60;1.00
2657;DHT22;1338;48.176;11.792;2023-07-31T09:59:15;20.40;1.00
2657;DHT22;1338;48.176;11.792;2023-07-31T10:01:46;20.60;1.00
2657;DHT22;1338;48.176;11.792;2023-07-31T10:04:17;20.70;1.00
2657;DHT22;1338;48.176;11.792;2023-07-31T10:06:50;20.70;1.00
2657;DHT22;1338;48.176;11.792;2023-07-31T10:09:21;20.50;1.00
2657;DHT22;1338;48.176;11.792;2023-07-31T10:11:56;20.40;1.00
2657;DHT22;1338;48.176;11.792;2023-07-31T10:14:27;20.60;1.00
2657;DHT22;1338;48.176;11.792;2023-07-31T10:16:57;20.70;1.00
2657;DHT22;1338;48.176;11.792;2023-07-31T10:19:26;21.10;1.00
2657;DHT22;1338;48.176;11.792;2023-07-31T10:21:57;21.50;1.00
2657;DHT22;1338;48.176;11.792;2023-07-31T10:24:26;20.80;1.00
2657;DHT22;1338;48.176;11.792;2023-07-31T10:26:57;21.60;1.00
2657;DHT22;1338;48.176;11.792;2023-07-31T10:29:26;21.40;1.00
2657;DHT22;1338;48.176;11.792;2023-07-31T10:31:57;20.90;1.00
2657;DHT22;1338;48.176;11.792;2023-07-31T10:34:26;21.30;1.00
2657;DHT22;1338;48.176;11.792;2023-07-31T10:40:00;21.50;1.00
2657;DHT22;1338;48.176;11.792;2023-07-31T10:42:34;21.70;1.00
2657;DHT22;1338;48.176;11.792;2023-07-31T10:45:04;21.70;1.00
2657;DHT22;1338;48.176;11.792;2023-07-31T10:47:37;22.30;1.00
2657;DHT22;1338;48.176;11.792;2023-07-31T10:50:20;22.70;1.00
2657;DHT22;1338;48.176;11.792;2023-07-31T10:52:49;22.40;1.00
2657;DHT22;1338;48.176;11.792;2023-07-31T10:55:29;22.50;1.00
2657;DHT22;1338;48.176;11.792;2023-07-31T10:58:05;22.00;1.00
2657;DHT22;1338;48.176;11.792;2023-07-31T11:00:37;22.20;1.00
2657;DHT22;1338;48.176;11.792;2023-07-31T11:03:06;22.30;1.00
2657;DHT22;1338;48.176;11.792;2023-07-31T11:05:47;21.80;1.00
2657;DHT22;1338;48.176;11.792;2023-07-31T11:08:17;22.50;1.00
2657;DHT22;1338;48.176;11.792;2023-07-31T11:10:47;22.60;1.00
2657;DHT22;1338;48.176;11.792;2023-07-31T11:13:17;22.80;1.00
2657;DHT22;1338;48.176;11.792;2023-07-31T11:15:45;21.90;1.00
2657;DHT22;1338;48.176;11.792;2023-07-31T11:18:13;21.70;1.00
2657;DHT22;1338;48.176;11.792;2023-07-31T11:20:44;22.30;1.00
2657;DHT22;1338;48.176;11.792;2023-07-31T11:23:12;23.10;1.00
2657;DHT22;1338;48.176;11.792;2023-07-31T11:25:41;23.40;1.00
2657;DHT22;1338;48.176;11.792;2023-07-31T11:28:10;23.20;1.00
2657;DHT22;1338;48.176;11.792;2023-07-31T11:30:40;22.70;1.00
2657;DHT22;1338;48.176;11.792;2023-07-31T11:33:10;23.10;1.00
2657;DHT22;1338;48.176;11.792;2023-07-31T11:35:41;23.00;1.00
2657;DHT22;1338;48.176;11.792;2023-07-31T11:38:12;22.80;1.00
2657;DHT22;1338;48.176;11.792;2023-07-31T11:40:44;22.20;1.00
2657;DHT22;1338;48.176;11.792;2023-07-31T11:43:13;22.50;1.00
2657;DHT22;1338;48.176;11.792;2023-07-31T11:45:47;23.10;1.00
2657;DHT22;1338;48.176;11.792;2023-07-31T11:48:20;23.00;1.00
2657;DHT22;1338;48.176;11.792;2023-07-31T11:50:50;22.40;1.00
2657;DHT22;1338;48.176;11.792;2023-07-31T11:53:21;23.20;1.00
2657;DHT22;1338;48.176;11.792;2023-07-31T11:55:51;23.70;1.00
2657;DHT22;1338;48.176;11.792;2023-07-31T11:58:20;23.20;1.00
2657;DHT22;1338;48.176;11.792;2023-07-31T12:00:51;23.00;1.00
2657;DHT22;1338;48.176;11.792;2023-07-31T12:03:19;23.00;1.00
2657;DHT22;1338;48.176;11.792;2023-07-31T12:05:48;23.00;1.00
2657;DHT22;1338;48.176;11.792;2023-07-31T12:08:16;22.60;1.00
2657;DHT22;1338;48.176;11.792;2023-07-31T12:10:44;22.70;1.00
2657;DHT22;1338;48.176;11.792;2023-07-31T12:13:21;22.70;1.00
2657;DHT22;1338;48.176;11.792;2023-07-31T12:15:54;22.50;1.00
2657;DHT22;1338;48.176;11.792;2023-07-31T12:18:24;22.80;1.00
2657;DHT22;1338;48.176;11.792;2023-07-31T12:20:55;24.40;1.00
2657;DHT22;1338;48.176;11.792;2023-07-31T12:23:27;24.00;1.00
2657;DHT22;1338;48.176;11.792;2023-07-31T12:26:02;23.90;1.00
2657;DHT22;1338;48.176;11.792;2023-07-31T12:28:30;24.20;1.00
2657;DHT22;1338;48.176;11.792;2023-07-31T12:31:04;24.90;1.00
2657;DHT22;1338;48.176;11.792;2023-07-31T12:33:34;23.80;1.00
2657;DHT22;1338;48.176;11.792;2023-07-31T12:36:04;23.30;1.00
2657;DHT22;1338;48.176;11.792;2023-07-31T12:38:34;23.20;1.00
2657;DHT22;1338;48.176;11.792;2023-07-31T12:41:02;23.00;1.00
2657;DHT22;1338;48.176;11.792;2023-07-31T12:43:30;23.40;1.00
2657;DHT22;1338;48.176;11.792;2023-07-31T12:45:59;23.70;1.00
2657;DHT22;1338;48.176;11.792;2023-07-31T12:48:29;23.60;1.00
2657;DHT22;1338;48.176;11.792;2023-07-31T12:50:57;23.60;1.00
2657;DHT22;1338;48.176;11.792;2023-07-31T12:53:26;24.10;1.00
2657;DHT22;1338;48.176;11.792;2023-07-31T12:55:54;23.50;1.00
2657;DHT22;1338;48.176;11.792;2023-07-31T12:58:22;23.50;1.00
2657;DHT22;1338;48.176;11.792;2023-07-31T13:00:50;24.10;1.00
2657;DHT22;1338;48.176;11.792;2023-07-31T13:03:19;24.90;1.00
2657;DHT22;1338;48.176;11.792;2023-07-31T13:05:48;25.20;1.00
2657;DHT22;1338;48.176;11.792;2023-07-31T13:08:16;24.70;1.00
2657;DHT22;1338;48.176;11.792;2023-07-31T13:10:44;25.40;1.00
2657;DHT22;1338;48.176;11.792;2023-07-31T13:13:13;25.60;1.00
2657;DHT22;1338;48.176;11.792;2023-07-31T13:15:41;25.80;1.00
2657;DHT22;1338;48.176;11.792;2023-07-31T13:18:09;24.80;1.00
2657;DHT22;1338;48.176;11.792;2023-07-31T13:20:37;24.20;1.00
2657;DHT22;1338;48.176;11.792;2023-07-31T13:23:07;24.10;1.00
2657;DHT22;1338;48.176;11.792;2023-07-31T13:25:35;23.70;1.00
2657;DHT22;1338;48.176;11.792;2023-07-31T13:28:03;24.60;1.00
2657;DHT22;1338;48.176;11.792;2023-07-31T13:30:31;24.50;1.00
2657;DHT22;1338;48.176;11.792;2023-07-31T13:32:59;24.30;1.00
2657;DHT22;1338;48.176;11.792;2023-07-31T13:35:28;24.70;1.00
2657;DHT22;1338;48.176;11.792;2023-07-31T13:37:58;24.20;1.00
2657;DHT22;1338;48.176;11.792;2023-07-31T13:40:28;24.30;1.00
2657;DHT22;1338;48.176;11.792;2023-07-31T13:42:56;25.20;1.00
2657;DHT22;1338;48.176;11.792;2023-07-31T13:45:24;25.50;1.00
2657;DHT22;1338;48.176;11.792;2023-07-31T13:47:52;25.20;1.00
2657;DHT22;1338;48.176;11.792;2023-07-31T13:50:20;25.20;1.00
2657;DHT22;1338;48.176;11.792;2023-07-31T13:52:49;24.00;1.00
2657;DHT22;1338;48.176;11.792;2023-07-31T13:55:17;24.40;1.00
2657;DHT22;1338;48.176;11.792;2023-07-31T13:57:47;24.70;1.00
2657;DHT22;1338;48.176;11.792;2023-07-31T14:00:15;25.20;1.00
2657;DHT22;1338;48.176;11.792;2023-07-31T14:02:44;25.40;1.00
2657;DHT22;1338;48.176;11.792;2023-07-31T14:05:12;26.00;1.00
2657;DHT22;1338;48.176;11.792;2023-07-31T14:07:40;25.50;1.00
2657;DHT22;1338;48.176;11.792;2023-07-31T14:10:09;25.20;1.00
2657;DHT22;1338;48.176;11.792;2023-07-31T14:12:37;25.70;1.00
2657;DHT22;1338;48.176;11.792;2023-07-31T14:15:10;26.40;1.00
2657;DHT22;1338;48.176;11.792;2023-07-31T14:17:39;27.30;1.00
2657;DHT22;1338;48.176;11.792;2023-07-31T14:20:08;26.90;1.00
2657;DHT22;1338;48.176;11.792;2023-07-31T14:22:37;25.70;1.00
2657;DHT22;1338;48.176;11.792;2023-07-31T14:25:06;25.80;1.00
2657;DHT22;1338;48.176;11.792;2023-07-31T14:27:37;24.80;1.00
2657;DHT22;1338;48.176;11.792;2023-07-31T14:30:06;24.70;1.00
2657;DHT22;1338;48.176;11.792;2023-07-31T14:32:36;24.80;1.00
2657;DHT22;1338;48.176;11.792;2023-07-31T14:35:05;25.60;1.00
2657;DHT22;1338;48.176;11.792;2023-07-31T14:37:39;26.70;1.00
2657;DHT22;1338;48.176;11.792;2023-07-31T14:40:10;26.40;1.00
2657;DHT22;1338;48.176;11.792;2023-07-31T14:42:39;25.50;1.00
2657;DHT22;1338;48.176;11.792;2023-07-31T14:45:08;24.20;1.00
2657;DHT22;1338;48.176;11.792;2023-07-31T14:47:38;24.00;1.00
2657;DHT22;1338;48.176;11.792;2023-07-31T14:50:07;24.40;1.00
2657;DHT22;1338;48.176;11.792;2023-07-31T14:52:35;25.10;1.00
2657;DHT22;1338;48.176;11.792;2023-07-31T14:55:04;25.50;1.00
2657;DHT22;1338;48.176;11.792;2023-07-31T14:57:33;25.70;1.00
2657;DHT22;1338;48.176;11.792;2023-07-31T15:00:03;24.80;1.00
2657;DHT22;1338;48.176;11.792;2023-07-31T15:02:34;24.30;1.00
2657;DHT22;1338;48.176;11.792;2023-07-31T15:05:05;24.50;1.00
2657;DHT22;1338;48.176;11.792;2023-07-31T15:07:33;23.80;1.00
2657;DHT22;1338;48.176;11.792;2023-07-31T15:10:02;24.30;1.00
2657;DHT22;1338;48.176;11.792;2023-07-31T15:12:31;24.80;1.00
2657;DHT22;1338;48.176;11.792;2023-07-31T15:14:59;24.50;1.00
2657;DHT22;1338;48.176;11.792;2023-07-31T15:17:27;24.70;1.00
2657;DHT22;1338;48.176;11.792;2023-07-31T15:19:56;24.50;1.00
2657;DHT22;1338;48.176;11.792;2023-07-31T15:22:28;23.70;1.00
2657;DHT22;1338;48.176;11.792;2023-07-31T15:24:57;23.90;1.00
2657;DHT22;1338;48.176;11.792;2023-07-31T15:27:25;23.90;1.00
2657;DHT22;1338;48.176;11.792;2023-07-31T15:29:53;24.30;1.00
2657;DHT22;1338;48.176;11.792;2023-07-31T15:32:22;24.40;1.00
2657;DHT22;1338;48.176;11.792;2023-07-31T15:34:50;24.20;1.00
2657;DHT22;1338;48.176;11.792;2023-07-31T15:37:18;24.00;1.00
2657;DHT22;1338;48.176;11.792;2023-07-31T15:39:48;24.20;1.00
2657;DHT22;1338;48.176;11.792;2023-07-31T15:42:16;23.80;1.00
2657;DHT22;1338;48.176;11.792;2023-07-31T15:44:44;23.90;1.00
2657;DHT22;1338;48.176;11.792;2023-07-31T15:47:12;23.90;1.00
2657;DHT22;1338;48.176;11.792;2023-07-31T15:49:40;23.40;1.00
2657;DHT22;1338;48.176;11.792;2023-07-31T15:52:08;23.30;1.00
2657;DHT22;1338;48.176;11.792;2023-07-31T15:54:36;23.10;1.00
2657;DHT22;1338;48.176;11.792;2023-07-31T15:57:06;23.40;1.00
2657;DHT22;1338;48.176;11.792;2023-07-31T15:59:35;23.40;1.00
2657;DHT22;1338;48.176;11.792;2023-07-31T16:02:03;23.20;1.00
2657;DHT22;1338;48.176;11.792;2023-07-31T16:04:31;22.90;1.00
2657;DHT22;1338;48.176;11.792;2023-07-31T16:07:00;23.00;1.00
2657;DHT22;1338;48.176;11.792;2023-07-31T16:09:28;22.90;1.00
2657;DHT22;1338;48.176;11.792;2023-07-31T16:11:56;23.00;1.00
2657;DHT22;1338;48.176;11.792;2023-07-31T16:14:25;22.90;1.00
2657;DHT22;1338;48.176;11.792;2023-07-31T16:16:54;22.80;1.00